sensor_id;sensor_type;location;lat;lon;timestamp;pressure;altitude;pressure_sealevel;temperature;humidity
16664;BME280;8445;51.270;9.434;2023-02-27T00:00:40;100471.63;;;-3.30;55.28
16664;BME280;8445;51.270;9.434;2023-02-27T00:03:13;100476.81;;;-3.33;55.93
16664;BME280;8445;51.270;9.434;2023-02-27T00:05:40;100474.22;;;-3.33;54.99
16664;BME280;8445;51.270;9.434;2023-02-27T00:08:20;100470.75;;;-3.32;56.14
16664;BME280;8445;51.270;9.434;2023-02-27T00:13:37;100479.41;;;-3.25;55.68
16664;BME280;8445;51.270;9.434;2023-02-27T00:16:16;100487.16;;;-3.21;55.44
16664;BME280;8445;51.270;9.434;2023-02-27T00:18:50;100485.41;;;-3.25;55.35
16664;BME280;8445;51.270;9.434;2023-02-27T00:21:41;100485.41;;;-3.19;55.28
16664;BME280;8445;51.270;9.434;2023-02-27T00:24:37;100485.41;;;-3.23;55.34
16664;BME280;8445;51.270;9.434;2023-02-27T00:27:17;100486.28;;;-3.23;55.16
16664;BME280;8445;51.270;9.434;2023-02-27T00:29:43;100492.31;;;-3.22;55.19
16664;BME280;8445;51.270;9.434;2023-02-27T00:32:17;100488.88;;;-3.35;55.56
16664;BME280;8445;51.270;9.434;2023-02-27T00:34:48;100483.72;;;-3.46;55.64
16664;BME280;8445;51.270;9.434;2023-02-27T00:37:14;100484.56;;;-3.43;56.38
16664;BME280;8445;51.270;9.434;2023-02-27T00:39:48;100486.31;;;-3.46;56.12
16664;BME280;8445;51.270;9.434;2023-02-27T00:42:26;100491.47;;;-3.48;56.65
16664;BME280;8445;51.270;9.434;2023-02-27T00:45:00;100488.91;;;-3.54;55.80
16664;BME280;8445;51.270;9.434;2023-02-27T00:47:33;100485.47;;;-3.56;55.33
16664;BME280;8445;51.270;9.434;2023-02-27T00:50:11;100494.06;;;-3.48;55.73
16664;BME280;8445;51.270;9.434;2023-02-27T00:53:18;100488.88;;;-3.45;55.79
16664;BME280;8445;51.270;9.434;2023-02-27T00:55:56;100483.69;;;-3.48;55.79
16664;BME280;8445;51.270;9.434;2023-02-27T00:58:25;100484.56;;;-3.39;56.74
16664;BME280;8445;51.270;9.434;2023-02-27T01:01:13;100479.41;;;-3.50;58.11
16664;BME280;8445;51.270;9.434;2023-02-27T01:04:03;100481.13;;;-3.65;56.31
16664;BME280;8445;51.270;9.434;2023-02-27T01:06:29;100480.28;;;-3.78;55.68
16664;BME280;8445;51.270;9.434;2023-02-27T01:09:17;100478.53;;;-3.85;56.22
16664;BME280;8445;51.270;9.434;2023-02-27T01:11:48;100471.66;;;-3.77;56.58
16664;BME280;8445;51.270;9.434;2023-02-27T01:14:37;100469.06;;;-3.72;56.23
16664;BME280;8445;51.270;9.434;2023-02-27T01:17:22;100469.94;;;-3.72;56.30
16664;BME280;8445;51.270;9.434;2023-02-27T01:19:56;100468.19;;;-3.71;56.37
16664;BME280;8445;51.270;9.434;2023-02-27T01:22:24;100469.94;;;-3.68;56.56
16664;BME280;8445;51.270;9.434;2023-02-27T01:25:04;100470.78;;;-3.71;56.79
16664;BME280;8445;51.270;9.434;2023-02-27T01:27:29;100467.31;;;-3.53;57.25
16664;BME280;8445;51.270;9.434;2023-02-27T01:30:06;100459.56;;;-3.50;56.96
16664;BME280;8445;51.270;9.434;2023-02-27T01:32:32;100476.81;;;-3.39;57.28
16664;BME280;8445;51.270;9.434;2023-02-27T01:34:58;100473.34;;;-3.35;56.92
16664;BME280;8445;51.270;9.434;2023-02-27T01:37:24;100475.97;;;-3.37;57.29
16664;BME280;8445;51.270;9.434;2023-02-27T01:39:50;100473.34;;;-3.32;57.09
16664;BME280;8445;51.270;9.434;2023-02-27T01:42:25;100476.78;;;-3.27;57.14
16664;BME280;8445;51.270;9.434;2023-02-27T01:47:31;100473.34;;;-3.35;56.41
16664;BME280;8445;51.270;9.434;2023-02-27T01:49:59;100467.34;;;-3.36;56.70
16664;BME280;8445;51.270;9.434;2023-02-27T01:52:28;100467.34;;;-3.42;56.65
16664;BME280;8445;51.270;9.434;2023-02-27T01:54:55;100468.19;;;-3.38;57.20
16664;BME280;8445;51.270;9.434;2023-02-27T01:57:21;100473.38;;;-3.49;56.45
16664;BME280;8445;51.270;9.434;2023-02-27T01:59:47;100469.06;;;-3.66;56.67
16664;BME280;8445;51.270;9.434;2023-02-27T02:02:23;100479.38;;;-3.78;58.54
16664;BME280;8445;51.270;9.434;2023-02-27T02:04:51;100478.53;;;-3.99;57.75
16664;BME280;8445;51.270;9.434;2023-02-27T02:07:18;100481.09;;;-4.08;58.01
16664;BME280;8445;51.270;9.434;2023-02-27T02:09:54;100482.78;;;-4.21;58.57
16664;BME280;8445;51.270;9.434;2023-02-27T02:12:24;100481.03;;;-4.30;57.56
16664;BME280;8445;51.270;9.434;2023-02-27T02:14:52;100487.06;;;-4.33;57.27
16664;BME280;8445;51.270;9.434;2023-02-27T02:40:15;100479.94;;;-4.93;59.14
16664;BME280;8445;51.270;9.434;2023-02-27T02:43:23;100490.22;;;-4.99;59.76
16664;BME280;8445;51.270;9.434;2023-02-27T02:46:07;100491.88;;;-5.10;58.63
16664;BME280;8445;51.270;9.434;2023-02-27T02:48:55;100488.41;;;-5.12;59.88
16664;BME280;8445;51.270;9.434;2023-02-27T02:51:47;100490.16;;;-5.13;59.96
16664;BME280;8445;51.270;9.434;2023-02-27T02:54:18;100491.84;;;-5.13;59.11
16664;BME280;8445;51.270;9.434;2023-02-27T02:59:52;100490.16;;;-5.11;59.63
16664;BME280;8445;51.270;9.434;2023-02-27T03:02:24;100490.09;;;-5.17;57.58
16664;BME280;8445;51.270;9.434;2023-02-27T03:04:56;100487.53;;;-5.14;57.91
16664;BME280;8445;51.270;9.434;2023-02-27T03:07:29;100490.97;;;-5.15;58.84
16664;BME280;8445;51.270;9.434;2023-02-27T03:12:30;100504.75;;;-5.13;57.67
16664;BME280;8445;51.270;9.434;2023-02-27T03:15:02;100502.19;;;-5.10;57.66
16664;BME280;8445;51.270;9.434;2023-02-27T03:17:43;100502.25;;;-5.02;58.11
16664;BME280;8445;51.270;9.434;2023-02-27T03:20:18;100507.41;;;-5.01;58.75
16664;BME280;8445;51.270;9.434;2023-02-27T03:22:48;100507.44;;;-4.98;57.47
16664;BME280;8445;51.270;9.434;2023-02-27T03:25:15;100507.44;;;-4.98;58.56
16664;BME280;8445;51.270;9.434;2023-02-27T03:27:51;100511.69;;;-5.03;57.73
16664;BME280;8445;51.270;9.434;2023-02-27T03:30:24;100509.13;;;-5.03;57.69
16664;BME280;8445;51.270;9.434;2023-02-27T03:32:57;100509.13;;;-5.00;57.56
16664;BME280;8445;51.270;9.434;2023-02-27T03:35:53;100514.31;;;-4.97;57.29
16664;BME280;8445;51.270;9.434;2023-02-27T03:46:43;100517.81;;;-4.87;57.50
16664;BME280;8445;51.270;9.434;2023-02-27T03:49:08;100516.09;;;-4.86;57.54
16664;BME280;8445;51.270;9.434;2023-02-27T03:51:35;100529.00;;;-4.85;57.25
16664;BME280;8445;51.270;9.434;2023-02-27T03:54:21;100521.31;;;-4.76;57.97
16664;BME280;8445;51.270;9.434;2023-02-27T03:57:03;100529.06;;;-4.77;58.17
16664;BME280;8445;51.270;9.434;2023-02-27T03:59:30;100527.38;;;-4.66;57.84
16664;BME280;8445;51.270;9.434;2023-02-27T04:01:58;100530.84;;;-4.62;57.51
16664;BME280;8445;51.270;9.434;2023-02-27T04:04:25;100526.53;;;-4.62;57.18
16664;BME280;8445;51.270;9.434;2023-02-27T04:16:19;100528.28;;;-4.61;59.15
16664;BME280;8445;51.270;9.434;2023-02-27T04:19:11;100537.69;;;-4.69;59.16
16664;BME280;8445;51.270;9.434;2023-02-27T04:24:37;100536.84;;;-4.68;59.23
16664;BME280;8445;51.270;9.434;2023-02-27T04:27:34;100543.75;;;-4.61;58.45
16664;BME280;8445;51.270;9.434;2023-02-27T04:30:24;100537.78;;;-4.55;58.73
16664;BME280;8445;51.270;9.434;2023-02-27T04:32:56;100546.31;;;-4.64;57.80
16664;BME280;8445;51.270;9.434;2023-02-27T04:35:37;100548.06;;;-4.63;60.83
16664;BME280;8445;51.270;9.434;2023-02-27T04:41:11;100547.19;;;-4.62;58.14
16664;BME280;8445;51.270;9.434;2023-02-27T04:43:40;100548.06;;;-4.63;58.18
16664;BME280;8445;51.270;9.434;2023-02-27T04:46:09;100552.34;;;-4.65;58.02
16664;BME280;8445;51.270;9.434;2023-02-27T04:48:47;100554.94;;;-4.66;58.54
16664;BME280;8445;51.270;9.434;2023-02-27T04:51:17;100554.91;;;-4.68;58.21
16664;BME280;8445;51.270;9.434;2023-02-27T04:53:54;100561.78;;;-4.70;58.14
16664;BME280;8445;51.270;9.434;2023-02-27T04:56:26;100563.50;;;-4.75;58.25
16664;BME280;8445;51.270;9.434;2023-02-27T04:59:02;100572.91;;;-4.82;58.62
16664;BME280;8445;51.270;9.434;2023-02-27T05:04:36;100567.72;;;-4.86;58.99
16664;BME280;8445;51.270;9.434;2023-02-27T05:07:04;100573.69;;;-4.94;59.24
16664;BME280;8445;51.270;9.434;2023-02-27T05:12:09;100577.16;;;-4.92;59.66
16664;BME280;8445;51.270;9.434;2023-02-27T05:17:36;100574.47;;;-5.07;59.89
16664;BME280;8445;51.270;9.434;2023-02-27T05:20:04;100580.47;;;-5.10;59.69
16664;BME280;8445;51.270;9.434;2023-02-27T05:22:48;100581.31;;;-5.11;61.30
16664;BME280;8445;51.270;9.434;2023-02-27T05:25:24;100580.34;;;-5.24;60.58
16664;BME280;8445;51.270;9.434;2023-02-27T05:28:05;100586.28;;;-5.37;61.04
16664;BME280;8445;51.270;9.434;2023-02-27T05:33:32;100579.28;;;-5.51;61.71
16664;BME280;8445;51.270;9.434;2023-02-27T05:36:20;100598.94;;;-5.57;61.82
16664;BME280;8445;51.270;9.434;2023-02-27T05:38:51;100592.88;;;-5.64;60.42
16664;BME280;8445;51.270;9.434;2023-02-27T05:41:47;100597.97;;;-5.70;61.70
16664;BME280;8445;51.270;9.434;2023-02-27T05:44:21;100603.06;;;-5.78;60.99
16664;BME280;8445;51.270;9.434;2023-02-27T05:47:03;100601.25;;;-5.84;60.17
16664;BME280;8445;51.270;9.434;2023-02-27T05:49:36;100592.66;;;-5.86;60.03
16664;BME280;8445;51.270;9.434;2023-02-27T05:52:23;100593.56;;;-5.82;62.16
16664;BME280;8445;51.270;9.434;2023-02-27T05:55:37;100589.19;;;-5.88;62.63
16664;BME280;8445;51.270;9.434;2023-02-27T06:01:10;100595.00;;;-6.09;61.15
16664;BME280;8445;51.270;9.434;2023-02-27T06:03:40;100601.81;;;-6.16;60.82
16664;BME280;8445;51.270;9.434;2023-02-27T06:06:10;100600.16;;;-6.11;60.92
16664;BME280;8445;51.270;9.434;2023-02-27T06:08:36;100601.97;;;-6.03;60.61
16664;BME280;8445;51.270;9.434;2023-02-27T06:11:02;100600.31;;;-5.93;60.75
16664;BME280;8445;51.270;9.434;2023-02-27T06:13:28;100598.66;;;-5.90;60.84
16664;BME280;8445;51.270;9.434;2023-02-27T06:15:56;100602.94;;;-5.87;60.74
16664;BME280;8445;51.270;9.434;2023-02-27T06:18:24;100599.50;;;-5.88;60.94
16664;BME280;8445;51.270;9.434;2023-02-27T06:21:03;100612.41;;;-5.86;60.75
16664;BME280;8445;51.270;9.434;2023-02-27T06:23:34;100604.72;;;-5.82;61.05
16664;BME280;8445;51.270;9.434;2023-02-27T06:26:17;100609.94;;;-5.77;60.44
16664;BME280;8445;51.270;9.434;2023-02-27T06:29:06;100609.09;;;-5.74;61.27
16664;BME280;8445;51.270;9.434;2023-02-27T06:31:34;100609.22;;;-5.62;62.98
16664;BME280;8445;51.270;9.434;2023-02-27T06:34:00;100611.91;;;-5.53;62.71
16664;BME280;8445;51.270;9.434;2023-02-27T06:36:30;100613.59;;;-5.55;62.05
16664;BME280;8445;51.270;9.434;2023-02-27T06:39:03;100624.81;;;-5.53;62.64
16664;BME280;8445;51.270;9.434;2023-02-27T06:41:29;100618.00;;;-5.44;61.71
16664;BME280;8445;51.270;9.434;2023-02-27T06:43:55;100627.63;;;-5.25;63.03
16664;BME280;8445;51.270;9.434;2023-02-27T06:46:20;100630.41;;;-5.03;63.92
16664;BME280;8445;51.270;9.434;2023-02-27T06:48:46;100633.94;;;-4.92;62.59
16664;BME280;8445;51.270;9.434;2023-02-27T06:51:14;100638.22;;;-4.94;62.18
16664;BME280;8445;51.270;9.434;2023-02-27T06:53:42;100627.88;;;-4.97;62.07
16664;BME280;8445;51.270;9.434;2023-02-27T06:56:11;100635.59;;;-5.00;62.28
16664;BME280;8445;51.270;9.434;2023-02-27T06:58:39;100637.28;;;-5.03;61.93
16664;BME280;8445;51.270;9.434;2023-02-27T07:01:04;100638.16;;;-5.00;61.59
16664;BME280;8445;51.270;9.434;2023-02-27T07:03:30;100638.19;;;-4.97;61.67
16664;BME280;8445;51.270;9.434;2023-02-27T07:05:56;100634.84;;;-4.86;61.02
16664;BME280;8445;51.270;9.434;2023-02-27T07:08:23;100639.22;;;-4.76;60.46
16664;BME280;8445;51.270;9.434;2023-02-27T07:10:52;100641.88;;;-4.61;61.10
16664;BME280;8445;51.270;9.434;2023-02-27T07:13:17;100648.88;;;-4.47;61.69
16664;BME280;8445;51.270;9.434;2023-02-27T07:15:43;100648.91;;;-4.41;61.06
16664;BME280;8445;51.270;9.434;2023-02-27T07:18:11;100648.91;;;-4.36;60.74
16664;BME280;8445;51.270;9.434;2023-02-27T07:20:37;100649.81;;;-4.33;60.92
16664;BME280;8445;51.270;9.434;2023-02-27T07:23:03;100649.84;;;-4.26;61.89
16664;BME280;8445;51.270;9.434;2023-02-27T07:25:33;100653.31;;;-4.23;61.27
16664;BME280;8445;51.270;9.434;2023-02-27T07:27:59;100652.47;;;-4.20;60.91
16664;BME280;8445;51.270;9.434;2023-02-27T07:30:32;100652.50;;;-4.11;61.56
16664;BME280;8445;51.270;9.434;2023-02-27T07:33:00;100657.69;;;-4.08;61.65
16664;BME280;8445;51.270;9.434;2023-02-27T07:35:29;100655.97;;;-4.03;61.05
16664;BME280;8445;51.270;9.434;2023-02-27T07:37:54;100656.00;;;-3.96;61.22
16664;BME280;8445;51.270;9.434;2023-02-27T07:40:21;100656.06;;;-3.84;61.20
16664;BME280;8445;51.270;9.434;2023-02-27T07:42:48;100656.09;;;-3.75;60.42
16664;BME280;8445;51.270;9.434;2023-02-27T07:45:15;100650.97;;;-3.62;61.23
16664;BME280;8445;51.270;9.434;2023-02-27T07:47:43;100648.41;;;-3.51;60.73
16664;BME280;8445;51.270;9.434;2023-02-27T07:50:11;100657.06;;;-3.37;60.57
16664;BME280;8445;51.270;9.434;2023-02-27T07:52:41;100651.03;;;-3.25;60.09
16664;BME280;8445;51.270;9.434;2023-02-27T07:55:09;100656.22;;;-3.19;60.57
16664;BME280;8445;51.270;9.434;2023-02-27T07:57:36;100660.53;;;-3.13;61.12
16664;BME280;8445;51.270;9.434;2023-02-27T08:00:05;100651.06;;;-3.03;61.12
16664;BME280;8445;51.270;9.434;2023-02-27T08:02:37;100655.38;;;-3.02;60.87
16664;BME280;8445;51.270;9.434;2023-02-27T08:05:03;100663.13;;;-2.90;59.95
16664;BME280;8445;51.270;9.434;2023-02-27T08:07:31;100658.81;;;-2.78;60.49
16664;BME280;8445;51.270;9.434;2023-02-27T08:10:00;100660.53;;;-2.62;60.45
16664;BME280;8445;51.270;9.434;2023-02-27T08:12:27;100660.53;;;-2.46;60.62
16664;BME280;8445;51.270;9.434;2023-02-27T08:14:53;100653.56;;;-2.32;60.21
16664;BME280;8445;51.270;9.434;2023-02-27T08:17:19;100657.88;;;-2.21;60.58
16664;BME280;8445;51.270;9.434;2023-02-27T08:19:45;100674.22;;;-2.05;60.42
16664;BME280;8445;51.270;9.434;2023-02-27T08:22:11;100665.56;;;-1.92;60.11
16664;BME280;8445;51.270;9.434;2023-02-27T08:24:36;100666.34;;;-1.76;60.21
16664;BME280;8445;51.270;9.434;2023-02-27T08:27:03;100665.44;;;-1.64;60.82
16664;BME280;8445;51.270;9.434;2023-02-27T08:29:28;100668.88;;;-1.56;60.64
16664;BME280;8445;51.270;9.434;2023-02-27T08:31:56;100671.41;;;-1.45;60.49
16664;BME280;8445;51.270;9.434;2023-02-27T08:34:24;100680.84;;;-1.33;60.13
16664;BME280;8445;51.270;9.434;2023-02-27T08:36:53;100677.34;;;-1.29;60.67
16664;BME280;8445;51.270;9.434;2023-02-27T08:39:18;100674.69;;;-1.16;60.90
16664;BME280;8445;51.270;9.434;2023-02-27T08:41:44;100682.44;;;-1.12;60.61
16664;BME280;8445;51.270;9.434;2023-02-27T08:44:11;100685.81;;;-0.99;61.29
16664;BME280;8445;51.270;9.434;2023-02-27T08:46:39;100685.72;;;-0.86;61.00
16664;BME280;8445;51.270;9.434;2023-02-27T08:49:12;100696.06;;;-0.83;61.94
16664;BME280;8445;51.270;9.434;2023-02-27T08:51:42;100692.56;;;-0.76;62.54
16664;BME280;8445;51.270;9.434;2023-02-27T08:54:30;100697.59;;;-0.56;62.49
16664;BME280;8445;51.270;9.434;2023-02-27T08:56:56;100707.94;;;-0.48;62.07
16664;BME280;8445;51.270;9.434;2023-02-27T08:59:21;100702.72;;;-0.45;62.56
16664;BME280;8445;51.270;9.434;2023-02-27T09:01:49;100712.09;;;-0.30;61.89
16664;BME280;8445;51.270;9.434;2023-02-27T09:04:20;100698.16;;;-0.23;62.21
16664;BME280;8445;51.270;9.434;2023-02-27T09:06:45;100701.50;;;-0.11;61.96
16664;BME280;8445;51.270;9.434;2023-02-27T09:09:11;100697.94;;;-0.01;61.85
16664;BME280;8445;51.270;9.434;2023-02-27T09:14:41;100694.19;;;0.22;61.45
16664;BME280;8445;51.270;9.434;2023-02-27T09:17:18;100690.59;;;0.32;61.76
16664;BME280;8445;51.270;9.434;2023-02-27T09:20:07;100700.06;;;0.39;62.01
16664;BME280;8445;51.270;9.434;2023-02-27T09:22:54;100692.19;;;0.46;61.39
16664;BME280;8445;51.270;9.434;2023-02-27T09:25:48;100688.63;;;0.53;61.96
16664;BME280;8445;51.270;9.434;2023-02-27T09:28:34;100688.47;;;0.64;61.08
16664;BME280;8445;51.270;9.434;2023-02-27T09:31:23;100691.75;;;0.77;60.93
16664;BME280;8445;51.270;9.434;2023-02-27T09:33:57;100683.81;;;0.86;61.07
16664;BME280;8445;51.270;9.434;2023-02-27T09:36:26;100680.31;;;0.87;60.89
16664;BME280;8445;51.270;9.434;2023-02-27T09:38:56;100680.28;;;0.88;61.09
16664;BME280;8445;51.270;9.434;2023-02-27T09:44:36;100681.69;;;1.11;60.34
16664;BME280;8445;51.270;9.434;2023-02-27T09:47:30;100696.38;;;1.17;60.91
16664;BME280;8445;51.270;9.434;2023-02-27T09:50:26;100689.06;;;1.38;60.91
16664;BME280;8445;51.270;9.434;2023-02-27T09:52:58;100689.72;;;1.51;60.63
16664;BME280;8445;51.270;9.434;2023-02-27T09:55:29;100685.16;;;1.63;60.21
16664;BME280;8445;51.270;9.434;2023-02-27T09:58:03;100686.56;;;1.80;60.16
16664;BME280;8445;51.270;9.434;2023-02-27T10:00:46;100695.84;;;1.97;59.99
16664;BME280;8445;51.270;9.434;2023-02-27T10:06:27;100685.41;;;2.81;60.50
16664;BME280;8445;51.270;9.434;2023-02-27T10:09:08;100684.59;;;3.52;61.11
16664;BME280;8445;51.270;9.434;2023-02-27T10:14:46;100675.53;;;3.97;59.32
16664;BME280;8445;51.270;9.434;2023-02-27T10:17:23;100685.88;;;4.02;58.10
16664;BME280;8445;51.270;9.434;2023-02-27T10:20:06;100679.22;;;4.21;60.67
16664;BME280;8445;51.270;9.434;2023-02-27T10:22:41;100677.56;;;4.17;59.28
16664;BME280;8445;51.270;9.434;2023-02-27T10:25:14;100684.34;;;3.94;57.20
16664;BME280;8445;51.270;9.434;2023-02-27T10:27:45;100682.94;;;3.81;58.85
16664;BME280;8445;51.270;9.434;2023-02-27T10:30:23;100691.78;;;3.77;58.24
16664;BME280;8445;51.270;9.434;2023-02-27T10:33:00;100669.69;;;3.87;59.19
16664;BME280;8445;51.270;9.434;2023-02-27T10:35:39;100671.34;;;3.90;58.61
16664;BME280;8445;51.270;9.434;2023-02-27T10:38:58;100676.31;;;4.00;57.18
16664;BME280;8445;51.270;9.434;2023-02-27T10:42:04;100683.50;;;3.92;56.54
16664;BME280;8445;51.270;9.434;2023-02-27T10:47:38;100675.78;;;3.88;57.20
16664;BME280;8445;51.270;9.434;2023-02-27T10:50:21;100674.50;;;3.69;57.31
16664;BME280;8445;51.270;9.434;2023-02-27T10:53:27;100672.88;;;3.65;58.13
16664;BME280;8445;51.270;9.434;2023-02-27T10:59:41;100661.81;;;3.54;57.24
16664;BME280;8445;51.270;9.434;2023-02-27T11:02:42;100657.72;;;3.45;56.27
16664;BME280;8445;51.270;9.434;2023-02-27T11:05:34;100658.72;;;3.39;56.48
16664;BME280;8445;51.270;9.434;2023-02-27T11:08:12;100654.50;;;3.34;56.58
16664;BME280;8445;51.270;9.434;2023-02-27T11:11:06;100651.88;;;3.34;55.75
16664;BME280;8445;51.270;9.434;2023-02-27T11:17:41;100650.66;;;3.13;54.86
16664;BME280;8445;51.270;9.434;2023-02-27T11:23:26;100639.53;;;3.39;56.31
16664;BME280;8445;51.270;9.434;2023-02-27T11:26:31;100640.41;;;3.39;55.30
16664;BME280;8445;51.270;9.434;2023-02-27T11:29:19;100638.84;;;3.65;56.87
16664;BME280;8445;51.270;9.434;2023-02-27T11:35:32;100647.13;;;3.83;56.58
16664;BME280;8445;51.270;9.434;2023-02-27T11:38:03;100651.69;;;3.76;56.72
16664;BME280;8445;51.270;9.434;2023-02-27T11:41:09;100640.41;;;3.73;55.94
16664;BME280;8445;51.270;9.434;2023-02-27T11:43:46;100648.75;;;3.87;56.97
16664;BME280;8445;51.270;9.434;2023-02-27T11:46:24;100622.81;;;4.09;57.29
16664;BME280;8445;51.270;9.434;2023-02-27T11:55:32;100629.81;;;4.39;56.39
16664;BME280;8445;51.270;9.434;2023-02-27T11:58:30;100635.78;;;4.42;55.92
16664;BME280;8445;51.270;9.434;2023-02-27T12:01:17;100636.59;;;4.46;55.46
16664;BME280;8445;51.270;9.434;2023-02-27T12:07:44;100635.41;;;4.26;55.78
16664;BME280;8445;51.270;9.434;2023-02-27T12:11:41;100634.16;;;4.10;53.53
16664;BME280;8445;51.270;9.434;2023-02-27T12:14:31;100635.59;;;4.20;55.88
16664;BME280;8445;51.270;9.434;2023-02-27T12:17:32;100624.41;;;4.43;56.22
16664;BME280;8445;51.270;9.434;2023-02-27T12:21:05;100627.91;;;4.72;55.13
16664;BME280;8445;51.270;9.434;2023-02-27T12:24:20;100629.53;;;4.48;53.71
16664;BME280;8445;51.270;9.434;2023-02-27T12:34:32;100621.22;;;4.90;56.19
16664;BME280;8445;51.270;9.434;2023-02-27T12:37:12;100611.25;;;5.27;55.94
16664;BME280;8445;51.270;9.434;2023-02-27T12:39:53;100610.66;;;5.44;56.38
16664;BME280;8445;51.270;9.434;2023-02-27T12:42:28;100602.97;;;5.40;56.29
16664;BME280;8445;51.270;9.434;2023-02-27T12:57:57;100596.03;;;5.88;53.53
16664;BME280;8445;51.270;9.434;2023-02-27T13:04:46;100592.53;;;6.35;54.78
16664;BME280;8445;51.270;9.434;2023-02-27T13:07:37;100600.16;;;6.19;53.27
16664;BME280;8445;51.270;9.434;2023-02-27T13:13:41;100599.56;;;5.61;53.58
16664;BME280;8445;51.270;9.434;2023-02-27T13:16:25;100598.88;;;5.31;54.28
16664;BME280;8445;51.270;9.434;2023-02-27T13:19:18;100596.81;;;4.88;52.92
16664;BME280;8445;51.270;9.434;2023-02-27T13:21:54;100599.34;;;4.65;53.65
16664;BME280;8445;51.270;9.434;2023-02-27T13:24:33;100599.13;;;4.42;54.56
16664;BME280;8445;51.270;9.434;2023-02-27T13:30:45;100596.72;;;4.65;54.79
16664;BME280;8445;51.270;9.434;2023-02-27T13:36:15;100596.25;;;5.31;55.65
16664;BME280;8445;51.270;9.434;2023-02-27T13:39:14;100599.84;;;5.54;53.93
16664;BME280;8445;51.270;9.434;2023-02-27T13:45:46;100602.22;;;5.36;54.31
16664;BME280;8445;51.270;9.434;2023-02-27T13:51:00;100600.69;;;5.79;55.74
16664;BME280;8445;51.270;9.434;2023-02-27T13:53:29;100587.78;;;5.97;55.18
16664;BME280;8445;51.270;9.434;2023-02-27T13:56:24;100600.22;;;5.68;51.69
16664;BME280;8445;51.270;9.434;2023-02-27T13:59:19;100601.50;;;5.31;53.09
16664;BME280;8445;51.270;9.434;2023-02-27T14:05:43;100603.50;;;4.70;51.51
16664;BME280;8445;51.270;9.434;2023-02-27T14:08:18;100597.63;;;4.64;52.97
16664;BME280;8445;51.270;9.434;2023-02-27T14:14:38;100595.59;;;5.26;54.82
16664;BME280;8445;51.270;9.434;2023-02-27T14:17:13;100596.50;;;5.50;54.07
16664;BME280;8445;51.270;9.434;2023-02-27T14:26:15;100597.06;;;5.33;53.28
16664;BME280;8445;51.270;9.434;2023-02-27T14:29:03;100592.47;;;5.40;54.22
16664;BME280;8445;51.270;9.434;2023-02-27T14:31:54;100592.25;;;5.71;54.49
16664;BME280;8445;51.270;9.434;2023-02-27T14:34:40;100594.34;;;5.85;53.62
16664;BME280;8445;51.270;9.434;2023-02-27T14:37:11;100587.22;;;5.89;53.73
16664;BME280;8445;51.270;9.434;2023-02-27T14:39:53;100594.03;;;5.94;52.68
16664;BME280;8445;51.270;9.434;2023-02-27T14:45:29;100599.28;;;5.45;52.99
16664;BME280;8445;51.270;9.434;2023-02-27T14:48:01;100599.03;;;5.28;53.57
16664;BME280;8445;51.270;9.434;2023-02-27T14:50:43;100613.47;;;5.14;53.03
16664;BME280;8445;51.270;9.434;2023-02-27T14:53:26;100615.19;;;5.14;51.82
16664;BME280;8445;51.270;9.434;2023-02-27T14:56:13;100610.63;;;5.21;53.24
16664;BME280;8445;51.270;9.434;2023-02-27T14:58:59;100612.97;;;5.28;53.88
16664;BME280;8445;51.270;9.434;2023-02-27T15:01:27;100605.84;;;5.32;54.19
16664;BME280;8445;51.270;9.434;2023-02-27T15:04:05;100599.84;;;5.28;53.69
16664;BME280;8445;51.270;9.434;2023-02-27T15:06:42;100611.09;;;5.32;53.13
16664;BME280;8445;51.270;9.434;2023-02-27T15:09:21;100607.91;;;5.24;53.20
16664;BME280;8445;51.270;9.434;2023-02-27T15:11:50;100598.84;;;5.05;53.11
16664;BME280;8445;51.270;9.434;2023-02-27T15:14:21;100605.63;;;4.86;52.80
16664;BME280;8445;51.270;9.434;2023-02-27T15:16:54;100607.91;;;4.70;52.79
16664;BME280;8445;51.270;9.434;2023-02-27T15:19:25;100611.63;;;4.63;53.06
16664;BME280;8445;51.270;9.434;2023-02-27T15:22:13;100595.81;;;4.66;52.42
16664;BME280;8445;51.270;9.434;2023-02-27T15:24:45;100605.16;;;4.73;52.63
16664;BME280;8445;51.270;9.434;2023-02-27T15:27:36;100600.63;;;4.78;52.08
16664;BME280;8445;51.270;9.434;2023-02-27T15:30:20;100608.59;;;4.75;51.56
16664;BME280;8445;51.270;9.434;2023-02-27T15:32:51;100616.00;;;4.62;52.53
16664;BME280;8445;51.270;9.434;2023-02-27T15:35:29;100614.66;;;4.49;52.21
16664;BME280;8445;51.270;9.434;2023-02-27T15:38:05;100615.00;;;4.38;52.35
16664;BME280;8445;51.270;9.434;2023-02-27T15:40:40;100612.34;;;4.39;52.83
16664;BME280;8445;51.270;9.434;2023-02-27T15:43:20;100617.63;;;4.38;52.83
16664;BME280;8445;51.270;9.434;2023-02-27T15:46:05;100612.63;;;4.30;52.37
16664;BME280;8445;51.270;9.434;2023-02-27T15:48:32;100628.34;;;4.28;53.01
16664;BME280;8445;51.270;9.434;2023-02-27T15:50:58;100620.03;;;4.14;53.16
16664;BME280;8445;51.270;9.434;2023-02-27T15:53:29;100618.63;;;4.04;53.22
16664;BME280;8445;51.270;9.434;2023-02-27T15:56:05;100623.03;;;4.02;52.69
16664;BME280;8445;51.270;9.434;2023-02-27T15:58:36;100618.78;;;3.97;53.13
16664;BME280;8445;51.270;9.434;2023-02-27T16:01:17;100631.00;;;3.98;52.93
16664;BME280;8445;51.270;9.434;2023-02-27T16:03:45;100632.88;;;3.93;53.14
16664;BME280;8445;51.270;9.434;2023-02-27T16:06:16;100633.84;;;3.89;53.13
16664;BME280;8445;51.270;9.434;2023-02-27T16:08:53;100632.13;;;3.88;52.97
16664;BME280;8445;51.270;9.434;2023-02-27T16:11:23;100635.84;;;3.81;53.54
16664;BME280;8445;51.270;9.434;2023-02-27T16:13:54;100639.44;;;3.77;53.04
16664;BME280;8445;51.270;9.434;2023-02-27T16:19:36;100642.53;;;3.58;53.65
16664;BME280;8445;51.270;9.434;2023-02-27T16:22:15;100644.38;;;3.54;54.00
16664;BME280;8445;51.270;9.434;2023-02-27T16:24:45;100654.16;;;3.48;54.04
16664;BME280;8445;51.270;9.434;2023-02-27T16:27:23;100649.03;;;3.43;54.99
16664;BME280;8445;51.270;9.434;2023-02-27T16:29:54;100646.63;;;3.35;53.83
16664;BME280;8445;51.270;9.434;2023-02-27T16:32:39;100657.31;;;3.26;55.26
16664;BME280;8445;51.270;9.434;2023-02-27T16:35:19;100659.34;;;3.15;55.21
16664;BME280;8445;51.270;9.434;2023-02-27T16:37:49;100656.13;;;3.03;54.84
16664;BME280;8445;51.270;9.434;2023-02-27T16:40:35;100672.88;;;2.94;56.37
16664;BME280;8445;51.270;9.434;2023-02-27T16:43:04;100666.97;;;2.88;55.41
16664;BME280;8445;51.270;9.434;2023-02-27T16:45:30;100665.31;;;2.84;55.56